地図

経路データ

SID SEASON NUMBER BASIN SUBBASIN NAME ISO_TIME NATURE LAT LON WMO_WIND WMO_PRES WMO_AGENCY TRACK_TYPE DIST2LAND LANDFALL IFLAG USA_AGENCY USA_ATCF_ID USA_LAT USA_LON USA_RECORD USA_STATUS USA_WIND USA_PRES USA_SSHS USA_R34_NE USA_R34_SE USA_R34_SW USA_R34_NW USA_R50_NE USA_R50_SE USA_R50_SW USA_R50_NW USA_R64_NE USA_R64_SE USA_R64_SW USA_R64_NW USA_POCI USA_ROCI USA_RMW USA_EYE TOKYO_LAT TOKYO_LON TOKYO_GRADE TOKYO_WIND TOKYO_PRES TOKYO_R50_DIR TOKYO_R50_LONG TOKYO_R50_SHORT TOKYO_R30_DIR TOKYO_R30_LONG TOKYO_R30_SHORT TOKYO_LAND CMA_LAT CMA_LON CMA_CAT CMA_WIND CMA_PRES HKO_LAT HKO_LON HKO_CAT HKO_WIND HKO_PRES NEWDELHI_LAT NEWDELHI_LON NEWDELHI_GRADE NEWDELHI_WIND NEWDELHI_PRES NEWDELHI_CI NEWDELHI_DP NEWDELHI_POCI REUNION_LAT REUNION_LON REUNION_TYPE REUNION_WIND REUNION_PRES REUNION_TNUM REUNION_CI REUNION_RMW REUNION_R34_NE REUNION_R34_SE REUNION_R34_SW REUNION_R34_NW REUNION_R50_NE REUNION_R50_SE REUNION_R50_SW REUNION_R50_NW REUNION_R64_NE REUNION_R64_SE REUNION_R64_SW REUNION_R64_NW BOM_LAT BOM_LON BOM_TYPE BOM_WIND BOM_PRES BOM_TNUM BOM_CI BOM_RMW BOM_R34_NE BOM_R34_SE BOM_R34_SW BOM_R34_NW BOM_R50_NE BOM_R50_SE BOM_R50_SW BOM_R50_NW BOM_R64_NE BOM_R64_SE BOM_R64_SW BOM_R64_NW BOM_ROCI BOM_POCI BOM_EYE BOM_POS_METHOD BOM_PRES_METHOD NADI_LAT NADI_LON NADI_CAT NADI_WIND NADI_PRES WELLINGTON_LAT WELLINGTON_LON WELLINGTON_WIND WELLINGTON_PRES DS824_LAT DS824_LON DS824_STAGE DS824_WIND DS824_PRES TD9636_LAT TD9636_LON TD9636_STAGE TD9636_WIND TD9636_PRES TD9635_LAT TD9635_LON TD9635_WIND TD9635_PRES TD9635_ROCI NEUMANN_LAT NEUMANN_LON NEUMANN_CLASS NEUMANN_WIND NEUMANN_PRES MLC_LAT MLC_LON MLC_CLASS MLC_WIND MLC_PRES USA_GUST BOM_GUST BOM_GUST_PER REUNION_GUST REUNION_GUST_PER USA_SEAHGT USA_SEARAD_NE USA_SEARAD_SE USA_SEARAD_SW USA_SEARAD_NW STORM_SPEED STORM_DIR
1983082S15216 1983 17 SP MM NOT_NAMED 1983-03-22 18:00:00 NR -14.5000 -144.500 main 2987 2954 __________O___ -1 -14.5000 -144.500 1 7 254
1983082S15216 1983 17 SP MM NOT_NAMED 1983-03-22 21:00:00 NR -14.5993 -144.860 main 2943 2911 __________P___ -1 -14.5993 -144.860 1 7 254
1983082S15216 1983 17 SP MM NOT_NAMED 1983-03-23 00:00:00 NR -14.7000 -145.200 main 2911 2878 __________O___ -1 -14.7000 -145.200 2 7 252
1983082S15216 1983 17 SP MM NOT_NAMED 1983-03-23 03:00:00 NR -14.8032 -145.504 main 2878 2846 __________P___ -1 -14.8032 -145.504 2 6 250
1983082S15216 1983 17 SP MM NOT_NAMED 1983-03-23 06:00:00 NR -14.9066 -145.781 main 2846 2824 __________P___ -1 -14.9066 -145.781 2 6 249
1983082S15216 1983 17 SP MM NOT_NAMED 1983-03-23 09:00:00 NR -15.0066 -146.042 main 2824 2792 __________P___ -1 -15.0066 -146.042 2 5 249
1983082S15216 1983 17 SP MM NOT_NAMED 1983-03-23 12:00:00 NR -15.1000 -146.300 main 2792 2760 __________O___ -1 -15.1000 -146.300 2 6 254
1983082S15216 1983 17 SP MM NOT_NAMED 1983-03-23 15:00:00 NR -15.1620 -146.616 main 2760 2727 __________P___ -1 -15.1620 -146.616 2 6 259
1983082S15216 1983 17 SP MM NOT_NAMED 1983-03-23 18:00:00 NR -15.2202 -146.925 main 2727 2695 __________P___ -1 -15.2202 -146.925 2 6 257
1983082S15216 1983 17 SP MM NOT_NAMED 1983-03-23 21:00:00 NR -15.2933 -147.197 main 2695 2674 __________P___ -1 -15.2933 -147.197 2 5 249
1983082S15216 1983 17 SP MM NOT_NAMED 1983-03-24 00:00:00 NR -15.4000 -147.400 main 2674 2663 __________O___ -1 -15.4000 -147.400 4 4 229
1983082S15216 1983 17 SP MM NOT_NAMED 1983-03-24 03:00:00 NR -15.5679 -147.525 main 2663 2653 __________P___ -1 -15.5679 -147.525 4 4 205
1983082S15216 1983 17 SP MM NOT_NAMED 1983-03-24 06:00:00 NR -15.7697 -147.577 main 2653 2653 __________P___ -1 -15.7697 -147.577 4 4 185
1983082S15216 1983 17 SP MM NOT_NAMED 1983-03-24 09:00:00 NR -15.9867 -147.566 main 2654 2654 __________P___ -1 -15.9867 -147.566 4 4 170
1983082S15216 1983 17 SP MM NOT_NAMED 1983-03-24 12:00:00 NR -16.2000 -147.500 main 2666 2666 __________O___ -1 -16.2000 -147.500 4 4 159
1983082S15216 1983 17 SP MM NOT_NAMED 1983-03-24 15:00:00 NR -16.3863 -147.409 main 2677 2677 __________P___ -1 -16.3863 -147.409 4 4 149
1983082S15216 1983 17 SP MM NOT_NAMED 1983-03-24 18:00:00 NR -16.5650 -147.268 main 2689 2689 __________P___ -1 -16.5650 -147.268 4 5 139
1983082S15216 1983 17 SP MM NOT_NAMED 1983-03-24 21:00:00 NR -16.7362 -147.093 main 2711 2711 __________P___ -1 -16.7362 -147.093 4 5 134
1983082S15216 1983 17 SP MM NOT_NAMED 1983-03-25 00:00:00 NR -16.9000 -146.900 main 2734 2734 __________O___ -1 -16.9000 -146.900 4 5 131
1983082S15216 1983 17 SP MM NOT_NAMED 1983-03-25 03:00:00 NR -17.0531 -146.714 main 2756 2756 __________P___ -1 -17.0531 -146.714 4 5 129
1983082S15216 1983 17 SP MM NOT_NAMED 1983-03-25 06:00:00 NR -17.2000 -146.515 main 2778 2778 __________P___ -1 -17.2000 -146.515 4 5 127
1983082S15216 1983 17 SP MM NOT_NAMED 1983-03-25 09:00:00 NR -17.3469 -146.308 main 2800 2800 __________P___ -1 -17.3469 -146.308 4 5 127
1983082S15216 1983 17 SP MM NOT_NAMED 1983-03-25 12:00:00 NR -17.5000 -146.100 main 2823 2823 __________O___ -1 -17.5000 -146.100 4 5 128
1983082S15216 1983 17 SP MM NOT_NAMED 1983-03-25 15:00:00 NR -17.6392 -145.920 main 2845 2845 __________P___ -1 -17.6392 -145.920 4 5 130
1983082S15216 1983 17 SP MM NOT_NAMED 1983-03-25 18:00:00 NR -17.7897 -145.737 main 2868 2868 __________P___ -1 -17.7897 -145.737 4 5 132
1983082S15216 1983 17 SP MM NOT_NAMED 1983-03-25 21:00:00 NR -17.9703 -145.535 main 2891 2891 __________P___ -1 -17.9703 -145.535 4 6 135
1983082S15216 1983 17 SP MM NOT_NAMED 1983-03-26 00:00:00 NR -18.2000 -145.300 main 2915 2915 __________O___ -1 -18.2000 -145.300 4 7 137
1983082S15216 1983 17 SP MM NOT_NAMED 1983-03-26 03:00:00 NR -18.4957 -145.015 main 2950 2950 __________P___ -1 -18.4957 -145.015 4 9 138
1983082S15216 1983 17 SP MM NOT_NAMED 1983-03-26 06:00:00 NR -18.8401 -144.695 main 2985 2985 __________P___ -1 -18.8401 -144.695 4 10 139
1983082S15216 1983 17 SP MM NOT_NAMED 1983-03-26 09:00:00 NR -19.2144 -144.352 main 3022 3022 __________P___ -1 -19.2144 -144.352 4 10 139
1983082S15216 1983 17 SP MM NOT_NAMED 1983-03-26 12:00:00 NR -19.6000 -144.000 main 3069 3069 __________O___ -1 -19.6000 -144.000 4 10 139
1983082S15216 1983 17 SP MM NOT_NAMED 1983-03-26 15:00:00 NR -19.9817 -143.648 main 3117 3117 __________P___ -1 -19.9817 -143.648 4 10 139
1983082S15216 1983 17 SP MM NOT_NAMED 1983-03-26 18:00:00 NR -20.3579 -143.299 main 3154 3154 __________P___ -1 -20.3579 -143.299 4 10 139
1983082S15216 1983 17 SP MM NOT_NAMED 1983-03-26 21:00:00 NR -20.7301 -142.950 main 3201 3201 __________P___ -1 -20.7301 -142.950 4 10 139
1983082S15216 1983 17 SP MM NOT_NAMED 1983-03-27 00:00:00 NR -21.1000 -142.600 main 3239 __________O___ -1 -21.1000 -142.600 4 10 139

デジタル台風データ・検索

IBTrACS Databaseについて

本データベースは、米国NOAAが公開する1842年以降の世界の熱帯低気圧のベストトラックデータアーカイブInternational Best Track Archive for Climate Stewardship (IBTrACS)を、ウェブで閲覧しやすい形式に変換したものです。

最終更新日:2021-10-08